Time;durP1;ratioP1;P1;durP2;ratioP2;P2;SDS_P1;SDS_P2;PMS_P1;PMS_P2;Temp;Humidity;BMP_temperature;BMP_pressure;BME280_temperature;BME280_humidity;BME280_pressure;Samples;Min_cycle;Max_cycle;Signal;HPM_P1;HPM_P2
2023/08/15 00:00:15;;;;;;;6.82;5.00;;;;;;;21.50;95.14;94998.59;4890174;29;20577;-86
2023/08/15 00:02:40;;;;;;;5.55;5.05;;;;;;;21.39;97.50;94990.72;4891112;29;20024;-89
2023/08/15 00:05:06;;;;;;;6.90;5.18;;;;;;;21.05;100.00;94989.81;4886433;29;20036;-82
2023/08/15 00:07:31;;;;;;;7.63;5.53;;;;;;;21.16;100.00;94986.38;4886747;29;20251;-85
2023/08/15 00:09:57;;;;;;;5.45;4.93;;;;;;;20.95;100.00;94984.34;4888243;29;20118;-86
2023/08/15 00:12:22;;;;;;;5.78;5.28;;;;;;;20.94;100.00;94986.19;4887967;29;20032;-86
2023/08/15 00:14:48;;;;;;;5.60;5.07;;;;;;;20.98;100.00;94986.53;4889499;29;20479;-88
2023/08/15 00:17:13;;;;;;;6.18;5.03;;;;;;;20.93;100.00;94981.16;4888668;29;20088;-88
2023/08/15 00:19:39;;;;;;;6.82;5.43;;;;;;;20.69;100.00;94984.88;4890559;29;20676;-88
2023/08/15 00:22:04;;;;;;;6.05;5.38;;;;;;;20.58;100.00;94993.59;4887646;29;20028;-87
2023/08/15 00:24:30;;;;;;;5.82;4.90;;;;;;;20.60;100.00;94973.91;4889845;29;20051;-89
2023/08/15 00:26:55;;;;;;;6.13;5.53;;;;;;;20.44;100.00;94982.53;4888437;29;20430;-84
2023/08/15 00:29:21;;;;;;;6.35;5.75;;;;;;;20.54;100.00;94969.59;4888636;29;20499;-86
2023/08/15 00:31:46;;;;;;;6.68;6.07;;;;;;;20.39;100.00;94977.94;4890757;29;20098;-88
2023/08/15 00:34:11;;;;;;;6.20;5.70;;;;;;;20.14;100.00;94982.63;4887930;29;20115;-89
2023/08/15 00:36:37;;;;;;;7.72;6.00;;;;;;;20.08;100.00;94978.28;4891247;29;20036;-89
2023/08/15 00:39:02;;;;;;;6.78;5.63;;;;;;;20.13;100.00;94970.47;4888055;29;20483;-84
2023/08/15 00:41:29;;;;;;;7.07;6.38;;;;;;;20.16;100.00;94975.31;4887661;29;20024;-88
2023/08/15 00:43:56;;;;;;;6.43;5.82;;;;;;;20.13;100.00;94983.63;4887991;29;20032;-86
2023/08/15 00:46:22;;;;;;;6.90;5.60;;;;;;;20.23;100.00;94967.28;4887751;29;20035;-89
2023/08/15 00:48:48;;;;;;;9.88;5.47;;;;;;;19.93;100.00;94970.84;4890164;29;20032;-90
2023/08/15 00:51:14;;;;;;;5.97;5.38;;;;;;;19.80;100.00;94975.50;4901759;29;20063;-90
2023/08/15 00:53:40;;;;;;;5.93;5.28;;;;;;;19.63;100.00;94974.56;4889222;29;20732;-90
2023/08/15 00:56:06;;;;;;;6.47;5.82;;;;;;;19.67;100.00;94967.84;4887117;29;20039;-90
2023/08/15 00:58:32;;;;;;;8.85;5.80;;;;;;;19.76;100.00;94966.47;4888907;29;20033;-90
2023/08/15 01:00:57;;;;;;;6.60;6.00;;;;;;;19.75;100.00;94960.41;4887605;29;20052;-89
2023/08/15 01:03:23;;;;;;;6.65;5.72;;;;;;;19.79;100.00;94955.50;4887222;29;20025;-86
2023/08/15 01:05:49;;;;;;;6.38;5.78;;;;;;;19.55;100.00;94957.31;4887911;29;20100;-87
2023/08/15 01:08:15;;;;;;;8.05;6.13;;;;;;;19.71;100.00;94956.66;4886401;29;20434;-86
2023/08/15 01:10:42;;;;;;;6.97;6.30;;;;;;;19.74;100.00;94950.13;4886288;29;20036;-84
2023/08/15 01:13:19;;;;;;;6.88;6.28;;;;;;;19.70;100.00;94943.72;4884434;29;20084;-88
2023/08/15 01:15:51;;;;;;;7.22;5.88;;;;;;;19.52;100.00;94930.69;4887775;29;20285;-87
2023/08/15 01:18:35;;;;;;;6.50;5.90;;;;;;;19.54;100.00;94945.19;4887294;29;20025;-96
2023/08/15 01:21:01;;;;;;;6.93;6.28;;;;;;;19.29;100.00;94960.28;4887885;29;20062;-87
2023/08/15 01:23:43;;;;;;;6.90;6.10;;;;;;;19.19;100.00;94958.22;4887220;29;20032;-90
2023/08/15 01:26:09;;;;;;;6.45;5.85;;;;;;;19.25;100.00;94954.69;4889459;29;20880;-94
2023/08/15 01:28:35;;;;;;;6.53;5.90;;;;;;;19.41;100.00;94954.06;4889599;29;20025;-93
2023/08/15 01:31:34;;;;;;;6.30;5.72;;;;;;;19.45;100.00;94947.34;4889036;29;20031;-88
2023/08/15 01:34:23;;;;;;;6.80;5.30;;;;;;;19.43;100.00;94952.00;4884749;29;20124;-89
2023/08/15 01:36:54;;;;;;;6.63;6.03;;;;;;;19.42;100.00;94953.03;4888947;29;20095;-90
2023/08/15 01:39:27;;;;;;;11.65;6.63;;;;;;;19.37;100.00;94950.25;4892517;29;20082;-93
2023/08/15 01:41:53;;;;;;;6.97;6.22;;;;;;;19.39;100.00;94955.31;4896349;29;20071;-91
2023/08/15 01:44:19;;;;;;;7.38;6.50;;;;;;;19.15;100.00;94956.25;4893384;29;20154;-94
2023/08/15 01:46:46;;;;;;;8.52;6.93;;;;;;;19.26;100.00;94953.66;4898948;29;20025;-91
2023/08/15 01:49:13;;;;;;;7.28;6.57;;;;;;;19.38;100.00;94945.81;4888578;29;20033;-86
2023/08/15 01:51:38;;;;;;;6.88;6.18;;;;;;;19.31;100.00;94934.59;4894283;29;20115;-83
2023/08/15 01:54:03;;;;;;;9.57;6.53;;;;;;;19.25;100.00;94936.28;4890315;29;20496;-84
2023/08/15 01:56:29;;;;;;;7.25;6.53;;;;;;;19.19;100.00;94928.50;4885117;29;20494;-87
2023/08/15 01:58:54;;;;;;;6.75;6.00;;;;;;;19.06;100.00;94939.19;4887659;29;20562;-87
2023/08/15 02:01:20;;;;;;;8.38;6.88;;;;;;;19.11;100.00;94939.31;4885810;29;20034;-88
2023/08/15 02:03:46;;;;;;;6.38;5.85;;;;;;;19.02;100.00;94930.97;4887361;29;20025;-86
2023/08/15 02:06:12;;;;;;;6.80;6.07;;;;;;;19.07;100.00;94932.94;4886978;29;20060;-88
2023/08/15 02:08:38;;;;;;;8.98;6.45;;;;;;;18.96;100.00;94947.63;4887989;29;20107;-89
2023/08/15 02:11:04;;;;;;;7.18;6.57;;;;;;;19.04;100.00;94946.50;4887570;29;20119;-87
2023/08/15 02:13:32;;;;;;;7.90;7.07;;;;;;;18.98;100.00;94945.56;4885996;29;20119;-86
2023/08/15 02:15:58;;;;;;;8.25;6.90;;;;;;;19.12;100.00;94941.72;4886599;29;20033;-85
2023/08/15 02:18:28;;;;;;;8.85;6.22;;;;;;;18.91;100.00;94943.00;4885775;29;20028;-87
2023/08/15 02:20:53;;;;;;;6.88;6.18;;;;;;;18.81;100.00;94948.03;4888311;29;20440;-90
2023/08/15 02:23:19;;;;;;;8.95;6.30;;;;;;;18.86;100.00;94936.84;4884664;29;20033;-88
2023/08/15 02:25:44;;;;;;;7.63;6.93;;;;;;;18.97;100.00;94933.47;4886622;29;20067;-85
2023/08/15 02:28:10;;;;;;;6.43;5.82;;;;;;;18.99;100.00;94926.16;4885511;29;20138;-88
2023/08/15 02:30:37;;;;;;;6.97;6.35;;;;;;;18.86;100.00;94927.16;4873986;29;20032;-86
2023/08/15 02:33:06;;;;;;;6.90;6.18;;;;;;;18.65;100.00;94924.19;4887042;29;20063;-89
2023/08/15 02:35:32;;;;;;;9.15;6.03;;;;;;;18.55;100.00;94918.66;4886011;29;20032;-87
2023/08/15 02:37:58;;;;;;;6.63;6.03;;;;;;;18.49;100.00;94928.19;4885148;29;20103;-88
2023/08/15 02:40:27;;;;;;;6.57;5.80;;;;;;;18.40;100.00;94927.66;4885762;29;20064;-89
2023/08/15 02:42:52;;;;;;;7.38;6.45;;;;;;;18.29;100.00;94943.34;4888828;29;20030;-89
2023/08/15 02:45:18;;;;;;;6.95;6.25;;;;;;;18.24;100.00;94933.50;4885810;29;20713;-88
2023/08/15 02:47:44;;;;;;;7.20;6.50;;;;;;;18.18;100.00;94942.25;4885561;29;20082;-89
2023/08/15 02:50:10;;;;;;;6.90;6.22;;;;;;;18.17;100.00;94948.50;4886577;29;20041;-90
2023/08/15 02:52:36;;;;;;;7.32;6.72;;;;;;;18.13;100.00;94957.84;4886274;29;20063;-90
2023/08/15 02:55:01;;;;;;;8.63;6.55;;;;;;;18.17;100.00;94968.69;4884771;29;20104;-82
2023/08/15 02:57:27;;;;;;;9.60;7.20;;;;;;;18.31;100.00;94952.59;4885516;29;20480;-89
2023/08/15 02:59:52;;;;;;;7.72;6.93;;;;;;;18.24;100.00;94958.91;4888247;29;20021;-89
2023/08/15 03:02:17;;;;;;;7.57;6.95;;;;;;;18.21;100.00;94941.00;4885693;29;20515;-88
2023/08/15 03:04:43;;;;;;;7.20;6.50;;;;;;;18.14;100.00;94950.78;4885922;29;20315;-84
2023/08/15 03:07:08;;;;;;;7.93;7.18;;;;;;;18.01;100.00;94954.31;4886321;29;20099;-86
2023/08/15 03:09:34;;;;;;;10.07;7.18;;;;;;;17.89;100.00;94956.84;4884852;29;20099;-87
2023/08/15 03:11:59;;;;;;;7.15;6.50;;;;;;;17.83;100.00;94965.56;4886492;29;20137;-86
2023/08/15 03:14:28;;;;;;;7.63;6.93;;;;;;;17.78;100.00;94965.41;4884948;29;20044;-88
2023/08/15 03:16:53;;;;;;;7.32;6.72;;;;;;;17.82;100.00;94958.72;4886224;29;20112;-86
2023/08/15 03:19:18;;;;;;;9.18;6.13;;;;;;;17.85;100.00;94965.34;4882908;29;20458;-88
2023/08/15 03:21:44;;;;;;;9.30;7.28;;;;;;;18.00;100.00;94960.56;4885401;29;20483;-85
2023/08/15 03:24:09;;;;;;;11.05;6.95;;;;;;;18.07;100.00;94947.41;4884278;29;20045;-85
2023/08/15 03:26:35;;;;;;;10.35;6.18;;;;;;;18.01;100.00;94935.97;4885768;29;20039;-87
2023/08/15 03:29:01;;;;;;;7.50;6.03;;;;;;;17.97;100.00;94942.66;4884127;29;20103;-88
2023/08/15 03:31:26;;;;;;;6.68;6.07;;;;;;;17.91;100.00;94954.00;4885125;29;20131;-90
2023/08/15 03:33:52;;;;;;;6.88;6.28;;;;;;;17.74;100.00;94956.38;4888213;29;20040;-92
2023/08/15 03:36:17;;;;;;;6.95;6.35;;;;;;;17.82;100.00;94961.31;4886740;29;20495;-92
2023/08/15 03:38:43;;;;;;;7.30;6.13;;;;;;;17.94;100.00;94943.09;4887527;29;20031;-91
2023/08/15 03:41:08;;;;;;;6.53;6.03;;;;;;;18.10;100.00;94942.53;4886583;29;20076;-89
2023/08/15 03:43:34;;;;;;;7.18;6.20;;;;;;;18.09;100.00;94940.13;4887267;29;20036;-89
2023/08/15 03:46:00;;;;;;;7.05;6.45;;;;;;;18.18;100.00;94939.63;4886690;29;20040;-90
2023/08/15 03:48:26;;;;;;;6.50;5.90;;;;;;;17.92;100.00;94950.34;4885363;29;20032;-87
2023/08/15 03:50:54;;;;;;;8.13;6.30;;;;;;;18.07;100.00;94953.47;4883880;29;20487;-87
2023/08/15 03:53:19;;;;;;;9.93;6.97;;;;;;;18.15;100.00;94961.03;4884042;29;20084;-87
2023/08/15 03:55:46;;;;;;;7.97;6.82;;;;;;;18.29;100.00;94961.69;4885128;29;20032;-86
2023/08/15 03:58:12;;;;;;;8.25;6.63;;;;;;;18.34;100.00;94951.34;4885088;29;20100;-86
2023/08/15 04:00:37;;;;;;;6.40;5.80;;;;;;;18.40;100.00;94940.78;4884602;29;20108;-95
2023/08/15 04:03:03;;;;;;;6.85;5.65;;;;;;;18.33;100.00;94934.03;4884821;29;20471;-86
2023/08/15 04:05:28;;;;;;;7.85;6.22;;;;;;;18.29;100.00;94946.78;4884295;29;20028;-88
2023/08/15 04:07:53;;;;;;;8.70;6.28;;;;;;;18.37;100.00;94949.09;4885576;29;20037;-89
2023/08/15 04:10:19;;;;;;;6.18;5.68;;;;;;;18.39;100.00;94952.31;4884097;29;20035;-88
2023/08/15 04:12:44;;;;;;;6.95;5.68;;;;;;;18.55;100.00;94952.78;4885565;29;20495;-87
2023/08/15 04:15:10;;;;;;;11.43;6.07;;;;;;;18.61;100.00;94954.50;4883428;29;20421;-85
2023/08/15 04:17:36;;;;;;;7.45;6.25;;;;;;;18.48;100.00;94965.13;4886500;29;20029;-90
2023/08/15 04:20:02;;;;;;;7.38;5.78;;;;;;;18.57;100.00;94979.56;4888472;29;20396;-89
2023/08/15 04:22:27;;;;;;;7.07;6.45;;;;;;;18.69;100.00;94988.31;4888584;29;20411;-88
2023/08/15 04:24:53;;;;;;;6.40;5.90;;;;;;;18.72;100.00;94972.16;4889026;29;20033;-87
2023/08/15 04:27:18;;;;;;;9.70;6.35;;;;;;;18.72;100.00;94982.66;4889888;29;20111;-88
2023/08/15 04:29:44;;;;;;;6.72;6.05;;;;;;;18.69;100.00;94980.44;4890633;29;20044;-88
2023/08/15 04:32:09;;;;;;;7.05;6.45;;;;;;;18.64;100.00;94996.06;4887830;29;20025;-88
2023/08/15 04:34:34;;;;;;;7.00;6.47;;;;;;;18.56;100.00;94999.00;4889145;29;20036;-82
2023/08/15 04:37:00;;;;;;;12.57;6.10;;;;;;;18.65;100.00;94989.78;4886445;29;20025;-88
2023/08/15 04:39:27;;;;;;;9.75;6.63;;;;;;;18.68;100.00;94986.72;4888109;29;20841;-87
2023/08/15 04:41:52;;;;;;;9.63;6.30;;;;;;;18.84;100.00;94999.25;4888537;29;20390;-89
2023/08/15 04:44:18;;;;;;;10.93;6.95;;;;;;;18.91;100.00;95006.00;4888699;29;20033;-88
2023/08/15 04:46:43;;;;;;;9.27;6.85;;;;;;;19.02;100.00;95019.44;4889716;29;20116;-88
2023/08/15 04:49:08;;;;;;;8.32;6.28;;;;;;;19.04;100.00;94994.53;4889165;29;20099;-88
2023/08/15 04:51:34;;;;;;;7.50;6.82;;;;;;;19.13;100.00;95010.81;4889684;29;20048;-88
2023/08/15 04:53:59;;;;;;;8.13;6.32;;;;;;;19.19;100.00;95010.72;4888848;29;20392;-90
2023/08/15 04:56:25;;;;;;;6.55;5.82;;;;;;;19.14;100.00;95015.03;4890592;29;20060;-90
2023/08/15 04:58:50;;;;;;;7.38;5.63;;;;;;;19.04;100.00;95012.16;4887824;29;20037;-88
2023/08/15 05:01:16;;;;;;;5.90;5.47;;;;;;;19.07;100.00;95012.47;4888966;29;20037;-88
2023/08/15 05:03:41;;;;;;;6.00;5.47;;;;;;;19.13;100.00;95022.13;4887424;29;20124;-91
2023/08/15 05:06:06;;;;;;;6.13;5.53;;;;;;;19.28;100.00;95011.22;4888330;29;20059;-90
2023/08/15 05:08:32;;;;;;;9.55;5.72;;;;;;;19.42;100.00;94996.91;4886712;29;20543;-84
2023/08/15 05:10:58;;;;;;;10.40;5.53;;;;;;;19.63;100.00;94974.56;4886863;29;20123;-88
2023/08/15 05:13:24;;;;;;;8.77;5.72;;;;;;;19.70;100.00;94970.00;4887151;29;20032;-86
2023/08/15 05:15:49;;;;;;;6.63;4.85;;;;;;;19.78;100.00;94972.28;4885909;29;20037;-86
2023/08/15 05:18:16;;;;;;;5.20;4.80;;;;;;;19.71;100.00;94971.63;4885714;29;20032;-84
2023/08/15 05:20:42;;;;;;;5.53;5.13;;;;;;;19.73;100.00;94982.69;4883978;29;20052;-85
2023/08/15 05:23:08;;;;;;;5.68;4.97;;;;;;;19.75;100.00;94981.44;4886626;29;20123;-84
2023/08/15 05:25:33;;;;;;;7.93;4.75;;;;;;;19.87;100.00;94974.34;4885769;29;20651;-81
2023/08/15 05:28:03;;;;;;;5.20;4.80;;;;;;;19.95;100.00;94978.50;4883719;29;20059;-81
2023/08/15 05:30:28;;;;;;;7.25;5.15;;;;;;;19.84;100.00;94963.53;4884771;29;20036;-81
2023/08/15 05:32:54;;;;;;;5.38;4.88;;;;;;;19.92;100.00;94978.94;4884662;29;20036;-82
2023/08/15 05:35:19;;;;;;;5.32;4.72;;;;;;;19.94;100.00;94979.50;4883722;29;20100;-82
2023/08/15 05:37:45;;;;;;;5.32;4.82;;;;;;;19.94;100.00;94976.88;4881720;29;20040;-82
2023/08/15 05:40:10;;;;;;;5.78;5.10;;;;;;;19.98;100.00;94986.72;4883229;29;20124;-82
2023/08/15 05:42:36;;;;;;;5.20;4.68;;;;;;;20.04;100.00;94992.09;4882818;29;20036;-82
2023/08/15 05:45:01;;;;;;;6.82;5.47;;;;;;;20.06;100.00;94992.69;4885117;29;20464;-81
2023/08/15 05:47:27;;;;;;;5.63;5.03;;;;;;;20.13;100.00;94986.25;4883005;29;20051;-80
2023/08/15 05:49:52;;;;;;;7.32;5.20;;;;;;;20.20;100.00;94992.22;4883727;29;20041;-82
2023/08/15 05:52:17;;;;;;;9.65;5.60;;;;;;;20.22;100.00;94990.19;4885793;29;20020;-82
2023/08/15 05:54:43;;;;;;;5.97;5.47;;;;;;;20.30;100.00;95003.00;4883168;29;20021;-82
2023/08/15 05:57:08;;;;;;;7.13;5.60;;;;;;;20.25;100.00;95005.50;4881846;29;20037;-81
2023/08/15 05:59:34;;;;;;;6.57;5.10;;;;;;;20.25;100.00;95005.50;4864886;29;20039;-81
2023/08/15 06:01:59;;;;;;;6.78;5.75;;;;;;;20.24;100.00;95003.88;4870471;29;20044;-81
2023/08/15 06:04:24;;;;;;;6.32;5.80;;;;;;;20.31;100.00;95003.81;4872750;29;20025;-81
2023/08/15 06:06:50;;;;;;;6.22;5.45;;;;;;;20.55;100.00;94999.34;4878428;29;20131;-82
2023/08/15 06:09:15;;;;;;;6.85;5.15;;;;;;;20.54;100.00;94992.47;4884952;29;20036;-82
2023/08/15 06:11:41;;;;;;;6.88;6.15;;;;;;;20.44;100.00;95001.75;4881984;29;20051;-80
2023/08/15 06:14:06;;;;;;;8.25;5.65;;;;;;;20.26;100.00;95012.38;4884664;29;20040;-81
2023/08/15 06:16:32;;;;;;;6.25;5.28;;;;;;;20.36;100.00;95004.72;4883304;29;20029;-81
2023/08/15 06:18:57;;;;;;;5.88;5.40;;;;;;;20.45;100.00;95005.97;4883892;29;20031;-81
2023/08/15 06:21:22;;;;;;;6.10;5.35;;;;;;;20.63;100.00;95004.22;4881801;29;20491;-80
2023/08/15 06:23:48;;;;;;;6.82;5.95;;;;;;;20.79;100.00;95001.69;4883243;29;20080;-78
2023/08/15 06:26:13;;;;;;;6.10;5.60;;;;;;;20.92;100.00;95005.91;4883231;29;20033;-81
2023/08/15 06:28:39;;;;;;;6.55;5.78;;;;;;;21.08;100.00;95002.53;4888824;29;20087;-80
2023/08/15 06:31:04;;;;;;;6.60;6.07;;;;;;;20.99;100.00;95006.56;4884859;29;20467;-81
2023/08/15 06:33:30;;;;;;;9.93;6.45;;;;;;;21.03;100.00;95008.47;4882578;29;20103;-80
2023/08/15 06:35:55;;;;;;;7.05;5.90;;;;;;;21.03;100.00;95007.69;4884916;29;20032;-82
2023/08/15 06:38:20;;;;;;;6.82;6.32;;;;;;;21.49;100.00;95007.53;4875960;29;20033;-80
2023/08/15 06:40:46;;;;;;;6.75;6.15;;;;;;;21.71;100.00;95001.56;4870026;29;20450;-80
2023/08/15 06:43:12;;;;;;;6.15;5.60;;;;;;;22.13;100.00;94994.91;4875862;29;20036;-80
2023/08/15 06:45:37;;;;;;;6.45;5.85;;;;;;;22.05;100.00;94995.31;4883467;29;20037;-81
2023/08/15 06:48:05;;;;;;;7.35;6.80;;;;;;;21.72;100.00;95008.47;4880167;29;20096;-80
2023/08/15 06:50:31;;;;;;;6.47;5.97;;;;;;;21.50;100.00;95019.69;4863437;29;20033;-80
2023/08/15 06:52:58;;;;;;;7.65;7.05;;;;;;;21.34;100.00;95038.09;4867291;29;20499;-81
2023/08/15 06:55:23;;;;;;;7.95;7.18;;;;;;;21.09;100.00;95071.81;4866066;29;20081;-81
2023/08/15 06:57:49;;;;;;;8.52;7.93;;;;;;;21.27;100.00;95082.22;4864652;29;20484;-80
2023/08/15 07:00:15;;;;;;;8.52;7.93;;;;;;;21.11;100.00;95094.28;4865432;29;20037;-81
2023/08/15 07:02:41;;;;;;;8.75;8.15;;;;;;;21.20;100.00;95103.44;4880021;29;20037;-82
2023/08/15 07:05:07;;;;;;;8.50;7.90;;;;;;;20.96;100.00;95125.56;4861989;29;20384;-80
2023/08/15 07:07:33;;;;;;;8.82;8.15;;;;;;;20.88;100.00;95149.59;4864195;29;20025;-79
2023/08/15 07:09:58;;;;;;;8.45;7.85;;;;;;;20.77;100.00;95168.84;4871879;29;20053;-82
2023/08/15 07:12:24;;;;;;;8.20;7.53;;;;;;;20.65;100.00;95197.78;4867771;29;20037;-82
2023/08/15 07:14:49;;;;;;;8.90;8.20;;;;;;;20.50;100.00;95229.81;4871072;29;20513;-81
2023/08/15 07:17:15;;;;;;;9.85;8.85;;;;;;;20.46;100.00;95333.91;4866809;29;20402;-80
2023/08/15 07:19:40;;;;;;;8.98;8.27;;;;;;;20.43;100.00;95347.53;4881218;29;20028;-89
2023/08/15 07:22:05;;;;;;;10.98;9.73;;;;;;;20.43;100.00;95365.13;4873389;29;20170;-83
2023/08/15 07:24:31;;;;;;;10.00;9.15;;;;;;;20.16;100.00;95377.78;4875199;29;20411;-85
2023/08/15 07:26:56;;;;;;;10.50;8.68;;;;;;;20.29;100.00;95340.81;4881888;29;20052;-88
2023/08/15 07:29:22;;;;;;;10.13;9.32;;;;;;;20.62;100.00;95313.25;4879125;29;20077;-83
2023/08/15 07:31:47;;;;;;;9.27;8.68;;;;;;;20.44;100.00;95307.03;4870173;29;20072;-85
2023/08/15 07:34:12;;;;;;;9.18;8.48;;;;;;;20.51;100.00;95288.50;4881516;29;20078;-84
2023/08/15 07:36:38;;;;;;;8.35;7.75;;;;;;;20.63;100.00;95270.13;4881523;29;20486;-85
2023/08/15 07:39:03;;;;;;;8.63;8.02;;;;;;;20.63;100.00;95260.38;4872452;29;20037;-85
2023/08/15 07:41:29;;;;;;;9.13;8.32;;;;;;;20.70;100.00;95258.47;4871431;29;20083;-85
2023/08/15 07:43:55;;;;;;;8.55;7.85;;;;;;;20.67;100.00;95240.50;4880562;29;20055;-87
2023/08/15 07:46:20;;;;;;;9.60;8.80;;;;;;;20.73;100.00;95244.03;4873992;29;20088;-84
2023/08/15 07:48:46;;;;;;;9.60;8.68;;;;;;;20.78;100.00;95246.78;4879993;29;20471;-85
2023/08/15 07:51:11;;;;;;;9.07;8.23;;;;;;;20.71;100.00;95236.34;4884720;29;20024;-84
2023/08/15 07:53:37;;;;;;;8.60;7.90;;;;;;;20.72;100.00;95232.69;4887883;29;20749;-86
2023/08/15 07:56:03;;;;;;;9.20;8.32;;;;;;;20.87;100.00;95243.59;4884391;29;20497;-86
2023/08/15 07:58:29;;;;;;;11.05;8.23;;;;;;;20.86;100.00;95235.94;4887417;29;20525;-84
2023/08/15 08:00:54;;;;;;;9.35;8.57;;;;;;;20.93;100.00;95231.38;4887867;29;20036;-87
2023/08/15 08:03:20;;;;;;;8.35;7.75;;;;;;;20.58;100.00;95210.22;4889091;29;20112;-83
2023/08/15 08:05:45;;;;;;;9.20;8.30;;;;;;;20.87;100.00;95219.91;4887314;29;20774;-87
2023/08/15 08:08:12;;;;;;;8.07;7.40;;;;;;;20.91;100.00;95178.09;4887014;29;20029;-88
2023/08/15 08:10:38;;;;;;;7.70;7.20;;;;;;;20.85;100.00;95136.88;4879673;29;20124;-86
2023/08/15 08:13:06;;;;;;;8.00;7.50;;;;;;;20.81;100.00;95141.00;4883961;29;20859;-89
2023/08/15 08:15:33;;;;;;;9.40;8.60;;;;;;;20.87;100.00;95163.81;4876934;29;20548;-86
2023/08/15 08:17:58;;;;;;;7.78;7.07;;;;;;;20.82;100.00;95153.94;4877717;29;20028;-84
2023/08/15 08:20:25;;;;;;;8.35;7.85;;;;;;;20.84;100.00;95151.06;4886680;29;20040;-80
2023/08/15 08:22:50;;;;;;;7.65;6.97;;;;;;;20.88;100.00;95153.03;4885487;29;20566;-81
2023/08/15 08:25:21;;;;;;;8.25;7.45;;;;;;;21.01;100.00;95134.38;4885200;29;20036;-81
2023/08/15 08:27:47;;;;;;;8.85;8.15;;;;;;;20.94;100.00;95206.63;4887157;29;20388;-82
2023/08/15 08:30:13;;;;;;;8.73;8.13;;;;;;;20.95;100.00;95177.44;4885522;29;20024;-80
2023/08/15 08:32:39;;;;;;;9.65;8.85;;;;;;;21.01;100.00;95186.25;4886213;29;20029;-81
2023/08/15 08:35:05;;;;;;;8.80;8.10;;;;;;;21.05;100.00;95200.56;4884561;29;20431;-82
2023/08/15 08:37:32;;;;;;;8.95;8.15;;;;;;;21.20;100.00;95193.03;4886945;29;20096;-82
2023/08/15 08:39:57;;;;;;;10.45;9.40;;;;;;;21.24;100.00;95178.38;4886008;29;20059;-82
2023/08/15 08:42:24;;;;;;;9.20;8.50;;;;;;;21.27;100.00;95220.06;4884951;29;20040;-81
2023/08/15 08:44:50;;;;;;;7.95;7.35;;;;;;;21.21;100.00;95091.88;4883749;29;20043;-81
2023/08/15 08:47:20;;;;;;;8.40;7.80;;;;;;;21.29;100.00;95102.03;4883963;29;20422;-82
2023/08/15 08:49:45;;;;;;;10.18;7.72;;;;;;;21.34;100.00;95139.06;4868572;29;20454;-82
2023/08/15 08:52:13;;;;;;;8.95;8.20;;;;;;;21.38;100.00;95161.25;4883949;29;20036;-82
2023/08/15 08:54:38;;;;;;;8.73;8.05;;;;;;;21.32;100.00;95178.00;4885320;29;20040;-81
2023/08/15 08:57:06;;;;;;;9.98;7.78;;;;;;;21.25;100.00;95185.25;4884051;29;20039;-82
2023/08/15 08:59:33;;;;;;;9.38;8.57;;;;;;;21.39;100.00;95170.78;4886277;29;20025;-83
2023/08/15 09:01:58;;;;;;;8.40;7.80;;;;;;;21.55;100.00;95170.06;4882528;29;20152;-81
2023/08/15 09:04:24;;;;;;;9.93;8.82;;;;;;;21.48;100.00;95172.00;4883863;29;20105;-80
2023/08/15 09:06:50;;;;;;;12.35;8.98;;;;;;;21.48;100.00;95187.81;4883446;29;20037;-80
2023/08/15 09:09:15;;;;;;;9.77;8.93;;;;;;;21.49;100.00;95222.91;4884915;29;20076;-80
2023/08/15 09:11:41;;;;;;;10.05;9.35;;;;;;;21.56;100.00;95202.50;4885736;29;20128;-80
2023/08/15 09:14:06;;;;;;;11.05;9.98;;;;;;;21.71;100.00;95237.06;4885113;29;20039;-82
2023/08/15 09:16:33;;;;;;;13.70;11.40;;;;;;;21.80;100.00;95229.63;4883088;29;20028;-81
2023/08/15 09:19:02;;;;;;;11.55;10.52;;;;;;;21.90;100.00;95219.28;4883283;29;20506;-85
2023/08/15 09:21:28;;;;;;;11.90;10.70;;;;;;;21.97;100.00;95223.41;4885640;29;20478;-84
2023/08/15 09:23:56;;;;;;;11.60;10.60;;;;;;;22.15;100.00;95216.34;4884773;29;20043;-84
2023/08/15 09:26:22;;;;;;;11.63;10.57;;;;;;;22.20;100.00;95211.97;4885363;29;20041;-81
2023/08/15 09:28:49;;;;;;;10.73;9.75;;;;;;;22.27;100.00;95159.81;4886159;29;20526;-82
2023/08/15 09:31:15;;;;;;;9.80;9.10;;;;;;;22.20;100.00;95113.50;4883437;29;20028;-79
2023/08/15 09:33:41;;;;;;;9.57;8.85;;;;;;;22.40;100.00;95117.28;4875942;29;20036;-79
2023/08/15 09:36:08;;;;;;;8.70;8.10;;;;;;;22.85;100.00;95071.50;4880713;29;20051;-80
2023/08/15 09:38:37;;;;;;;8.35;7.75;;;;;;;23.12;100.00;95014.22;4883666;29;20077;-80
2023/08/15 09:41:02;;;;;;;;;;;;;;;23.52;100.00;95000.69;4884066;29;20051;-82
2023/08/15 09:43:29;;;;;;;7.60;6.90;;;;;;;23.18;100.00;95000.03;4882136;29;20232;-80
2023/08/15 09:45:55;;;;;;;8.32;6.70;;;;;;;23.08;100.00;95003.38;4885058;29;20029;-81
2023/08/15 09:48:22;;;;;;;7.32;6.75;;;;;;;22.97;100.00;95000.84;4882985;29;20043;-82
2023/08/15 09:50:48;;;;;;;7.18;6.68;;;;;;;23.01;100.00;94991.38;4883909;29;20070;-81
2023/08/15 09:53:14;;;;;;;7.82;7.22;;;;;;;23.17;100.00;94997.63;4880995;29;20104;-81
2023/08/15 09:55:40;;;;;;;7.35;6.68;;;;;;;23.02;100.00;95004.31;4882480;29;20475;-81
2023/08/15 09:58:05;;;;;;;7.72;7.13;;;;;;;22.93;100.00;95005.81;4866602;29;20428;-80
2023/08/15 10:00:31;;;;;;;7.63;7.03;;;;;;;22.85;100.00;95006.25;4883382;29;20160;-81
2023/08/15 10:03:06;;;;;;;8.02;7.38;;;;;;;22.81;100.00;94989.28;4882493;29;20360;-83
2023/08/15 10:05:33;;;;;;;7.75;7.15;;;;;;;22.36;100.00;94997.38;4881721;29;20115;-82
2023/08/15 10:07:59;;;;;;;10.25;7.07;;;;;;;22.63;100.00;95013.31;4883667;29;20036;-83
2023/08/15 10:10:27;;;;;;;7.18;6.68;;;;;;;22.47;100.00;95007.03;4881501;29;20092;-83
2023/08/15 10:12:53;;;;;;;5.57;5.07;;;;;;;21.97;100.00;94987.78;4885357;29;20036;-82
2023/08/15 10:15:19;;;;;;;6.15;5.65;;;;;;;21.95;100.00;94980.13;4884182;29;20036;-82
2023/08/15 10:17:45;;;;;;;6.43;5.65;;;;;;;22.18;100.00;94983.63;4883905;29;20041;-82
2023/08/15 10:20:15;;;;;;;5.90;5.20;;;;;;;22.03;100.00;94982.34;4885069;29;20025;-82
2023/08/15 10:22:41;;;;;;;6.50;5.93;;;;;;;22.13;100.00;94980.91;4882597;29;20119;-78
2023/08/15 10:25:21;;;;;;;6.13;5.53;;;;;;;21.71;100.00;94977.84;4884764;29;20043;-82
2023/08/15 10:27:51;;;;;;;5.47;5.07;;;;;;;21.91;100.00;94975.56;4881754;29;20131;-86
2023/08/15 10:30:46;;;;;;;5.82;5.20;;;;;;;21.71;100.00;94978.63;4883491;29;20141;-81
2023/08/15 10:33:12;;;;;;;6.75;5.38;;;;;;;21.78;100.00;94978.50;4871096;29;20080;-83
2023/08/15 10:35:44;;;;;;;6.28;5.15;;;;;;;21.82;100.00;94979.63;4883196;29;20091;-82
2023/08/15 10:38:14;;;;;;;6.50;5.97;;;;;;;21.69;100.00;94985.19;4868631;29;20487;-82
2023/08/15 10:40:42;;;;;;;6.90;5.65;;;;;;;21.77;100.00;94988.22;4882079;29;20487;-83
2023/08/15 10:43:10;;;;;;;6.20;5.60;;;;;;;21.71;100.00;94998.94;4883852;29;20039;-79
2023/08/15 10:45:57;;;;;;;6.63;5.80;;;;;;;21.65;100.00;94991.97;4865128;29;20434;-80
2023/08/15 10:48:50;;;;;;;5.88;5.35;;;;;;;21.86;100.00;94993.94;4881675;29;20044;-83
2023/08/15 10:51:23;;;;;;;6.40;5.28;;;;;;;21.69;100.00;94995.75;4878541;29;20135;-81
2023/08/15 10:53:50;;;;;;;6.05;5.63;;;;;;;21.47;100.00;94990.38;4880676;29;20033;-82
2023/08/15 10:56:18;;;;;;;6.40;5.80;;;;;;;21.44;100.00;94999.56;4881103;29;20553;-81
2023/08/15 10:58:44;;;;;;;6.05;5.55;;;;;;;21.43;100.00;94990.03;4880376;29;20033;-85
2023/08/15 11:01:09;;;;;;;6.85;5.95;;;;;;;21.82;100.00;94993.59;4870565;29;20062;-83
2023/08/15 11:03:35;;;;;;;10.45;6.13;;;;;;;21.68;100.00;94996.78;4867475;29;20523;-83
2023/08/15 11:06:11;;;;;;;7.50;6.00;;;;;;;21.67;100.00;94995.19;4864992;29;20507;-82
2023/08/15 11:08:44;;;;;;;6.50;5.93;;;;;;;21.72;100.00;95001.34;4869045;29;20141;-85
2023/08/15 11:11:10;;;;;;;6.85;6.07;;;;;;;21.63;100.00;95004.63;4871000;29;20025;-83
2023/08/15 11:13:40;;;;;;;8.77;6.45;;;;;;;21.67;100.00;94998.63;4881995;29;20477;-81
2023/08/15 11:16:07;;;;;;;13.63;6.95;;;;;;;21.63;100.00;95001.97;4884100;29;20525;-82
2023/08/15 11:18:32;;;;;;;6.47;5.88;;;;;;;21.68;100.00;95007.31;4866340;29;20047;-85
2023/08/15 11:20:58;;;;;;;7.40;6.25;;;;;;;21.45;100.00;95009.03;4882593;29;20073;-81